createdAt,value
2023-10-09T00:02:15.430Z,54.40
2023-10-09T00:04:48.134Z,54.80
2023-10-09T00:07:18.293Z,54.80
2023-10-09T00:09:48.086Z,54.60
2023-10-09T00:12:24.155Z,54.50
2023-10-09T00:14:56.955Z,54.70
2023-10-09T00:17:25.621Z,54.60
2023-10-09T00:19:53.576Z,54.70
2023-10-09T00:22:30.532Z,54.70
2023-10-09T00:25:24.012Z,54.70
2023-10-09T00:27:50.998Z,54.80
2023-10-09T00:30:30.779Z,54.70
2023-10-09T00:33:02.310Z,54.90
2023-10-09T00:35:44.780Z,54.90
2023-10-09T00:38:23.785Z,55.00
2023-10-09T00:41:08.803Z,54.90
2023-10-09T00:43:37.830Z,55.00
2023-10-09T00:46:20.847Z,55.10
2023-10-09T00:51:47.507Z,55.20
2023-10-09T00:54:16.321Z,55.20
2023-10-09T01:05:23.095Z,55.10
2023-10-09T01:07:55.769Z,55.00
2023-10-09T01:10:23.176Z,55.50
2023-10-09T01:12:56.138Z,55.10
2023-10-09T01:15:44.890Z,55.20
2023-10-09T01:18:12.378Z,55.20
2023-10-09T01:20:46.582Z,55.00
2023-10-09T01:23:13.941Z,55.10
2023-10-09T01:25:45.444Z,55.10
2023-10-09T01:28:16.798Z,55.20
2023-10-09T01:30:44.569Z,55.20
2023-10-09T01:33:17.145Z,55.30
2023-10-09T01:35:49.383Z,55.30
2023-10-09T01:38:32.093Z,55.30
2023-10-09T01:41:08.036Z,55.70
2023-10-09T01:43:35.544Z,55.40
2023-10-09T01:46:02.873Z,55.40
2023-10-09T01:48:33.541Z,55.50
2023-10-09T01:51:01.209Z,55.60
2023-10-09T01:53:31.238Z,55.60
2023-10-09T01:56:00.429Z,56.20
2023-10-09T01:58:28.370Z,55.50
2023-10-09T02:00:58.284Z,55.60
2023-10-09T02:03:26.289Z,55.70
2023-10-09T02:06:19.590Z,55.70
2023-10-09T02:08:51.277Z,55.80
2023-10-09T02:11:36.561Z,55.80
2023-10-09T02:14:20.181Z,55.80
2023-10-09T02:17:09.093Z,56.10
2023-10-09T02:19:36.479Z,56.00
2023-10-09T02:22:13.771Z,55.80
2023-10-09T02:24:58.936Z,55.90
2023-10-09T02:27:49.747Z,56.20
2023-10-09T02:30:17.087Z,55.70
2023-10-09T02:32:45.637Z,55.70
2023-10-09T02:35:32.497Z,55.70
2023-10-09T02:37:59.633Z,55.60
2023-10-09T02:40:34.663Z,55.60
2023-10-09T02:43:01.625Z,55.90
2023-10-09T02:45:36.060Z,55.60
2023-10-09T02:48:11.934Z,55.70
2023-10-09T02:50:40.041Z,55.60
2023-10-09T02:53:19.520Z,55.60
2023-10-09T02:56:06.872Z,55.70
2023-10-09T02:58:37.768Z,55.70
2023-10-09T03:01:09.964Z,55.80
2023-10-09T03:03:37.043Z,55.80
2023-10-09T03:06:11.949Z,55.80
2023-10-09T03:08:41.834Z,55.80
2023-10-09T03:11:14.337Z,55.80
2023-10-09T03:13:45.952Z,55.90
2023-10-09T03:16:17.792Z,56.10
2023-10-09T03:18:46.128Z,55.90
2023-10-09T03:21:12.989Z,55.80
2023-10-09T03:23:39.888Z,55.80
2023-10-09T03:26:21.023Z,55.80
2023-10-09T03:28:50.428Z,55.80
2023-10-09T03:31:17.408Z,55.80
2023-10-09T03:33:44.388Z,55.80
2023-10-09T03:36:11.551Z,55.80
2023-10-09T03:38:39.843Z,55.80
2023-10-09T03:41:08.110Z,55.80
2023-10-09T03:43:41.936Z,55.80
2023-10-09T03:46:21.440Z,55.80
2023-10-09T03:48:58.803Z,55.90
2023-10-09T03:51:27.400Z,55.90
2023-10-09T03:53:54.824Z,55.70
2023-10-09T03:56:22.577Z,55.70
2023-10-09T03:58:52.080Z,55.70
2023-10-09T04:01:41.655Z,55.80
2023-10-09T04:04:11.705Z,55.80
2023-10-09T04:06:39.076Z,55.60
2023-10-09T04:09:34.680Z,55.60
2023-10-09T04:12:21.898Z,55.60
2023-10-09T04:14:51.853Z,55.50
2023-10-09T04:17:31.049Z,55.50
2023-10-09T04:20:16.017Z,55.60
2023-10-09T04:22:51.865Z,55.60
2023-10-09T04:25:26.731Z,55.60
2023-10-09T04:28:10.410Z,55.60
2023-10-09T04:30:41.900Z,55.80
2023-10-09T04:33:31.229Z,55.90
2023-10-09T04:36:21.669Z,55.80
2023-10-09T04:39:16.456Z,56.20
2023-10-09T04:41:43.860Z,55.70
2023-10-09T04:44:21.402Z,55.70
2023-10-09T04:47:11.259Z,55.90
2023-10-09T04:49:49.515Z,55.90
2023-10-09T04:52:26.834Z,55.90
2023-10-09T04:55:16.119Z,56.00
2023-10-09T04:57:45.230Z,56.00
2023-10-09T05:00:28.499Z,56.10
2023-10-09T05:03:12.573Z,56.50
2023-10-09T05:05:44.419Z,56.20
2023-10-09T05:08:29.849Z,56.30
2023-10-09T05:11:04.771Z,56.40
2023-10-09T05:13:41.028Z,56.60
2023-10-09T05:16:20.723Z,56.50
2023-10-09T05:18:58.021Z,56.70
2023-10-09T05:21:33.991Z,56.20
2023-10-09T05:24:15.203Z,56.30
2023-10-09T05:26:50.614Z,56.30
2023-10-09T05:29:35.362Z,56.50
2023-10-09T05:32:16.642Z,56.60
2023-10-09T05:35:01.760Z,56.40
2023-10-09T05:37:36.109Z,56.40
2023-10-09T05:40:19.562Z,56.60
2023-10-09T05:42:58.922Z,56.80
2023-10-09T05:45:46.380Z,56.60
2023-10-09T05:48:19.277Z,56.70
2023-10-09T05:51:05.022Z,56.70
2023-10-09T05:53:47.027Z,56.70
2023-10-09T05:56:33.097Z,56.80
2023-10-09T05:59:18.841Z,56.90
2023-10-09T06:01:51.908Z,56.90
2023-10-09T06:04:21.059Z,56.80
2023-10-09T06:06:57.901Z,57.00
2023-10-09T06:09:45.203Z,57.00
2023-10-09T06:12:31.032Z,56.80
2023-10-09T06:15:20.029Z,56.80
2023-10-09T06:17:53.810Z,57.00
2023-10-09T06:20:39.520Z,57.00
2023-10-09T06:23:24.861Z,57.00
2023-10-09T06:26:03.865Z,57.00
2023-10-09T06:28:36.551Z,57.00
2023-10-09T06:31:23.407Z,57.10
2023-10-09T06:34:10.400Z,57.10
2023-10-09T06:36:47.165Z,57.10
2023-10-09T06:39:32.823Z,57.10
2023-10-09T06:42:10.943Z,57.10
2023-10-09T06:44:56.025Z,57.10
2023-10-09T06:47:25.301Z,57.10
2023-10-09T06:50:10.856Z,57.00
2023-10-09T06:52:56.515Z,56.90
2023-10-09T06:55:33.915Z,56.90
2023-10-09T06:58:11.405Z,56.80
2023-10-09T07:00:53.348Z,56.80
2023-10-09T07:03:21.156Z,56.70
2023-10-09T07:06:06.339Z,56.50
2023-10-09T07:08:33.472Z,56.40
2023-10-09T07:11:37.316Z,56.30
2023-10-09T07:14:04.332Z,56.20
2023-10-09T07:16:39.384Z,56.10
2023-10-09T07:19:25.527Z,56.00
2023-10-09T07:21:55.371Z,56.00
2023-10-09T07:24:39.023Z,56.10
2023-10-09T07:27:13.151Z,55.90
2023-10-09T07:29:49.253Z,55.60
2023-10-09T07:32:22.122Z,55.40
2023-10-09T07:34:55.087Z,54.80
2023-10-09T07:37:24.729Z,54.90
2023-10-09T07:39:58.776Z,53.80
2023-10-09T07:42:39.554Z,53.70
2023-10-09T07:45:27.304Z,53.90
2023-10-09T07:48:15.748Z,54.50
2023-10-09T07:50:49.524Z,53.80
2023-10-09T07:53:26.967Z,53.00
2023-10-09T07:55:59.942Z,51.70
2023-10-09T07:58:27.415Z,49.70
2023-10-09T08:01:31.633Z,49.40
2023-10-09T08:03:58.943Z,49.10
2023-10-09T08:06:43.402Z,49.00
2023-10-09T08:09:47.399Z,48.70
2023-10-09T08:12:36.730Z,48.40
2023-10-09T08:15:20.672Z,47.60
2023-10-09T08:18:14.909Z,47.50
2023-10-09T08:21:04.714Z,48.00
2023-10-09T08:23:34.652Z,47.80
2023-10-09T08:26:14.955Z,47.80
2023-10-09T08:28:46.624Z,47.50
2023-10-09T08:31:20.803Z,47.60
2023-10-09T08:36:37.762Z,47.20
2023-10-09T08:39:24.118Z,47.20
2023-10-09T08:41:53.131Z,47.20
2023-10-09T08:44:26.100Z,47.10
2023-10-09T08:46:55.691Z,47.10
2023-10-09T08:49:23.044Z,47.00
2023-10-09T08:51:50.455Z,46.90
2023-10-09T08:54:18.151Z,46.80
2023-10-09T08:56:53.385Z,46.50
2023-10-09T08:59:21.791Z,46.20
2023-10-09T09:01:50.712Z,46.10
2023-10-09T09:04:41.284Z,46.20
2023-10-09T09:07:32.856Z,45.90
2023-10-09T09:10:19.331Z,45.70
2023-10-09T09:12:46.800Z,46.00
2023-10-09T09:15:21.175Z,45.90
2023-10-09T09:17:50.724Z,45.40
2023-10-09T09:20:35.841Z,45.80
2023-10-09T09:23:05.757Z,45.30
2023-10-09T09:25:49.629Z,45.50
2023-10-09T09:28:23.224Z,44.90
2023-10-09T09:30:52.988Z,45.60
2023-10-09T09:33:40.925Z,45.70
2023-10-09T09:36:08.552Z,45.20
2023-10-09T09:38:57.239Z,45.40
2023-10-09T09:41:27.048Z,45.00
2023-10-09T09:44:04.003Z,45.20
2023-10-09T09:46:36.155Z,44.70
2023-10-09T09:49:17.787Z,44.50
2023-10-09T09:51:47.744Z,44.50
2023-10-09T09:54:19.185Z,44.70
2023-10-09T09:56:53.125Z,44.80
2023-10-09T09:59:23.143Z,44.60
2023-10-09T10:02:07.958Z,44.30
2023-10-09T10:04:39.935Z,44.10
2023-10-09T10:07:13.646Z,43.80
2023-10-09T10:09:45.937Z,43.60
2023-10-09T10:12:15.506Z,43.70
2023-10-09T10:15:00.275Z,43.70
2023-10-09T10:17:30.546Z,43.30
2023-10-09T10:20:19.078Z,43.60
2023-10-09T10:22:49.190Z,43.20
2023-10-09T10:25:34.115Z,43.60
2023-10-09T10:28:17.491Z,43.10
2023-10-09T10:30:48.380Z,43.20
2023-10-09T10:33:17.469Z,42.30
2023-10-09T10:35:44.858Z,42.70
2023-10-09T10:38:38.044Z,42.70
2023-10-09T10:41:18.201Z,42.20
2023-10-09T10:43:54.419Z,41.80
2023-10-09T10:46:31.114Z,41.60
2023-10-09T10:49:16.710Z,41.40
2023-10-09T10:51:50.238Z,41.20
2023-10-09T10:54:34.457Z,41.40
2023-10-09T10:57:01.823Z,40.30
2023-10-09T10:59:37.991Z,41.10
2023-10-09T11:02:12.356Z,40.40
2023-10-09T11:04:42.419Z,40.20
2023-10-09T11:07:25.284Z,40.80
2023-10-09T11:10:07.902Z,40.80
2023-10-09T11:13:07.957Z,40.10
2023-10-09T11:15:47.496Z,40.30
2023-10-09T11:18:26.666Z,40.20
2023-10-09T11:20:58.592Z,39.90
2023-10-09T11:23:46.421Z,39.90
2023-10-09T11:26:24.886Z,39.90
2023-10-09T11:29:20.050Z,40.00
2023-10-09T11:32:09.067Z,39.40
2023-10-09T11:34:37.564Z,39.70
2023-10-09T11:37:27.140Z,39.80
2023-10-09T11:39:57.065Z,39.20
2023-10-09T11:42:39.181Z,39.40
2023-10-09T11:45:26.084Z,39.10
2023-10-09T11:48:01.145Z,39.00
2023-10-09T11:50:52.585Z,38.90
2023-10-09T11:53:23.589Z,38.50
2023-10-09T11:55:53.516Z,38.70
2023-10-09T11:58:24.577Z,38.10
2023-10-09T12:01:06.145Z,38.40
2023-10-09T12:03:34.340Z,37.70
2023-10-09T12:06:07.927Z,37.90
2023-10-09T12:08:36.015Z,37.90
2023-10-09T12:11:09.527Z,37.70
2023-10-09T12:13:39.843Z,36.70
2023-10-09T12:16:12.578Z,37.30
2023-10-09T12:18:40.717Z,37.00
2023-10-09T12:21:08.622Z,37.00
2023-10-09T12:23:38.404Z,37.00
2023-10-09T12:26:06.084Z,36.70
2023-10-09T12:28:36.036Z,36.80
2023-10-09T12:31:05.267Z,36.70
2023-10-09T12:33:32.442Z,36.90
2023-10-09T12:36:02.718Z,36.80
2023-10-09T12:38:33.514Z,36.60
2023-10-09T12:41:26.460Z,36.70
2023-10-09T12:43:54.869Z,36.20
2023-10-09T12:46:27.075Z,37.30
2023-10-09T12:48:57.289Z,36.90
2023-10-09T12:51:31.243Z,36.60
2023-10-09T12:53:58.765Z,36.70
2023-10-09T12:56:33.951Z,36.60
2023-10-09T12:59:02.897Z,36.40
2023-10-09T13:01:33.252Z,36.30
2023-10-09T13:04:12.510Z,36.40
2023-10-09T13:06:46.220Z,36.40
2023-10-09T13:09:15.509Z,36.40
2023-10-09T13:11:44.537Z,36.50
2023-10-09T13:14:18.839Z,36.80
2023-10-09T13:16:47.117Z,36.80
2023-10-09T13:19:14.237Z,36.80
2023-10-09T13:21:41.511Z,36.80
2023-10-09T13:24:17.093Z,36.90
2023-10-09T13:26:52.496Z,36.90
2023-10-09T13:29:25.690Z,36.80
2023-10-09T13:31:58.944Z,37.00
2023-10-09T13:34:29.388Z,37.20
2023-10-09T13:37:00.047Z,37.20
2023-10-09T13:39:27.880Z,37.90
2023-10-09T13:42:01.450Z,37.40
2023-10-09T13:44:34.266Z,37.40
2023-10-09T13:47:06.438Z,37.40
2023-10-09T13:49:34.302Z,37.50
2023-10-09T13:52:04.048Z,37.60
2023-10-09T13:54:34.955Z,37.70
2023-10-09T13:57:06.186Z,37.60
2023-10-09T13:59:36.421Z,37.60
2023-10-09T14:02:11.506Z,37.60
2023-10-09T14:04:39.213Z,38.00
2023-10-09T14:07:09.644Z,39.40
2023-10-09T14:09:45.942Z,41.50
2023-10-09T14:12:15.513Z,41.70
2023-10-09T14:14:48.530Z,41.70
2023-10-09T14:17:27.044Z,42.30
2023-10-09T14:20:17.491Z,43.40
2023-10-09T14:22:46.598Z,46.30
2023-10-09T14:25:16.555Z,47.60
2023-10-09T14:27:43.771Z,49.70
2023-10-09T14:30:20.049Z,50.70
2023-10-09T14:32:52.855Z,51.50
2023-10-09T14:35:22.906Z,51.70
2023-10-09T14:37:49.940Z,51.30
2023-10-09T14:40:22.295Z,51.70
2023-10-09T14:42:55.842Z,51.40
2023-10-09T14:45:26.696Z,51.80
2023-10-09T14:47:56.884Z,52.20
2023-10-09T14:50:24.187Z,51.90
2023-10-09T14:52:51.949Z,52.00
2023-10-09T14:55:22.167Z,52.60
2023-10-09T14:57:51.273Z,52.40
2023-10-09T15:00:24.349Z,52.60
2023-10-09T15:02:52.873Z,52.90
2023-10-09T15:05:19.899Z,53.10
2023-10-09T15:07:47.754Z,53.50
2023-10-09T15:10:19.378Z,53.70
2023-10-09T15:12:49.787Z,54.30
2023-10-09T15:15:17.743Z,54.40
2023-10-09T15:17:45.493Z,54.20
2023-10-09T15:20:15.967Z,54.50
2023-10-09T15:22:43.946Z,54.50
2023-10-09T15:25:21.118Z,55.10
2023-10-09T15:27:48.006Z,54.90
2023-10-09T15:30:15.526Z,55.10
2023-10-09T15:32:44.047Z,55.30
2023-10-09T15:35:14.148Z,55.30
2023-10-09T15:37:42.760Z,55.50
2023-10-09T15:40:19.230Z,53.10
2023-10-09T15:42:57.170Z,55.30
2023-10-09T15:45:25.354Z,55.20
2023-10-09T15:47:53.149Z,55.10
2023-10-09T15:50:24.002Z,55.40
2023-10-09T15:52:56.833Z,55.00
2023-10-09T15:55:26.977Z,54.50
2023-10-09T15:57:55.218Z,54.60
2023-10-09T16:00:29.497Z,54.20
2023-10-09T16:02:57.798Z,54.20
2023-10-09T16:05:27.031Z,54.50
2023-10-09T16:07:56.294Z,54.10
2023-10-09T16:10:24.331Z,53.80
2023-10-09T16:12:54.063Z,53.60
2023-10-09T16:15:21.720Z,53.40
2023-10-09T16:17:50.203Z,53.30
2023-10-09T16:20:22.905Z,53.20
2023-10-09T16:22:50.861Z,53.50
2023-10-09T16:25:21.778Z,53.00
2023-10-09T16:27:48.982Z,52.90
2023-10-09T16:30:22.099Z,53.10
2023-10-09T16:32:51.785Z,52.30
2023-10-09T18:23:12.024Z,51.80
2023-10-09T18:25:41.400Z,51.80
2023-10-09T18:28:08.368Z,51.70
2023-10-09T18:30:40.436Z,51.70
2023-10-09T18:33:07.690Z,51.20
2023-10-09T18:35:35.315Z,51.50
2023-10-09T18:38:02.393Z,51.40
2023-10-09T18:40:32.551Z,51.40
2023-10-09T18:43:09.554Z,51.30
2023-10-09T18:45:43.808Z,51.00
2023-10-09T18:48:12.356Z,50.70
2023-10-09T18:50:42.874Z,51.30
2023-10-09T18:53:11.360Z,51.20
2023-10-09T18:55:38.849Z,51.20
2023-10-09T18:58:12.761Z,51.10
2023-10-09T19:00:50.143Z,51.00
2023-10-09T19:03:18.260Z,50.70
2023-10-09T19:05:46.146Z,50.90
2023-10-09T19:08:13.595Z,51.40
2023-10-09T19:10:45.411Z,51.00
2023-10-09T19:13:13.388Z,50.90
2023-10-09T19:15:42.315Z,50.90
2023-10-09T19:20:46.288Z,50.90
2023-10-09T19:23:13.755Z,50.90
2023-10-09T19:25:44.422Z,50.90
2023-10-09T19:28:13.351Z,50.60
2023-10-09T19:30:40.395Z,50.60
2023-10-09T19:33:07.378Z,50.90
2023-10-09T19:35:39.621Z,50.80
2023-10-09T19:38:09.264Z,50.80
2023-10-09T19:40:36.606Z,50.80
2023-10-09T19:43:06.110Z,50.70
2023-10-09T19:45:33.179Z,50.70
2023-10-09T19:48:00.164Z,50.70
2023-10-09T19:50:27.175Z,50.70
2023-10-09T19:52:54.104Z,50.70
2023-10-09T19:55:22.943Z,50.50
2023-10-09T19:57:52.485Z,50.60
2023-10-09T20:00:23.260Z,50.50
2023-10-09T20:02:54.879Z,50.50
2023-10-09T20:05:24.178Z,50.50
2023-10-09T20:07:51.448Z,50.50
2023-10-09T20:10:19.720Z,50.50
2023-10-09T20:12:46.978Z,50.40
2023-10-09T20:15:14.819Z,50.40
2023-10-09T20:17:45.692Z,50.50
2023-10-09T20:20:13.256Z,50.40
2023-10-09T20:22:41.005Z,50.30
2023-10-09T20:25:14.176Z,50.80
2023-10-09T20:27:43.408Z,50.10
2023-10-09T20:30:14.808Z,50.00
2023-10-09T20:32:42.691Z,50.00
2023-10-09T20:35:13.581Z,50.00
2023-10-09T20:37:44.905Z,49.90
2023-10-09T20:40:21.860Z,49.50
2023-10-09T20:42:55.334Z,49.70
2023-10-09T20:45:22.858Z,49.60
2023-10-09T20:47:59.503Z,49.50
2023-10-09T20:50:27.595Z,49.30
2023-10-09T20:52:55.326Z,49.30
2023-10-09T20:55:24.547Z,49.30
2023-10-09T20:57:59.272Z,49.20
2023-10-09T21:00:28.502Z,49.20
2023-10-09T21:02:56.527Z,49.30
2023-10-09T21:05:24.695Z,49.20
2023-10-09T21:07:55.337Z,49.30
2023-10-09T21:10:22.759Z,49.30
2023-10-09T21:12:51.268Z,49.30
2023-10-09T21:15:22.171Z,49.40
2023-10-09T21:17:53.711Z,49.20
2023-10-09T21:20:21.032Z,49.40
2023-10-09T21:22:55.323Z,49.40
2023-10-09T21:25:25.116Z,49.20
2023-10-09T21:27:55.584Z,49.40
2023-10-09T21:30:24.634Z,49.40
2023-10-09T21:32:54.946Z,49.40
2023-10-09T21:35:22.985Z,49.40
2023-10-09T21:37:56.789Z,49.40
2023-10-09T21:40:32.032Z,49.40
2023-10-09T21:43:08.656Z,49.40
2023-10-09T21:45:45.827Z,49.00
2023-10-09T21:48:13.430Z,49.20
2023-10-09T21:50:42.613Z,49.40
2023-10-09T21:53:09.608Z,49.30
2023-10-09T21:55:37.117Z,49.40
2023-10-09T21:58:08.491Z,49.40
2023-10-09T22:00:37.345Z,49.40
2023-10-09T22:03:09.749Z,49.40
2023-10-09T22:05:43.864Z,49.30
2023-10-09T22:08:15.666Z,49.40
2023-10-09T22:10:45.020Z,49.40
2023-10-09T22:13:12.715Z,49.50
2023-10-09T22:15:40.025Z,49.50
2023-10-09T22:18:12.147Z,49.60
2023-10-09T22:20:40.459Z,49.50
2023-10-09T22:23:14.790Z,49.50
2023-10-09T22:25:46.254Z,49.50
2023-10-09T22:28:13.473Z,49.50
2023-10-09T22:30:44.285Z,49.50
2023-10-09T22:33:21.091Z,49.50
2023-10-09T22:35:48.439Z,49.60
2023-10-09T22:38:21.818Z,49.50
2023-10-09T22:40:52.929Z,49.50
2023-10-09T22:43:24.932Z,49.50
2023-10-09T22:45:53.284Z,49.50
2023-10-09T22:48:27.571Z,49.60
2023-10-09T22:51:10.811Z,49.60
2023-10-09T22:53:39.990Z,49.50
2023-10-09T22:56:13.719Z,49.60
2023-10-09T22:58:51.801Z,49.40
2023-10-09T23:01:24.776Z,49.90
2023-10-09T23:04:16.421Z,49.30
2023-10-09T23:06:49.952Z,49.20
2023-10-09T23:09:17.583Z,49.20
2023-10-09T23:11:55.017Z,49.50
2023-10-09T23:14:27.046Z,49.10
2023-10-09T23:17:08.663Z,48.90
2023-10-09T23:19:45.363Z,48.70
2023-10-09T23:22:21.716Z,49.00
2023-10-09T23:25:09.439Z,48.90
2023-10-09T23:27:39.272Z,49.00
2023-10-09T23:30:24.933Z,48.80
2023-10-09T23:33:12.549Z,48.90
2023-10-09T23:36:07.515Z,48.70
2023-10-09T23:38:35.906Z,48.90
2023-10-09T23:41:13.208Z,49.50
2023-10-09T23:43:46.363Z,49.00
2023-10-09T23:46:18.189Z,49.10
2023-10-09T23:48:45.949Z,49.20
2023-10-09T23:51:20.029Z,49.20
2023-10-09T23:53:53.185Z,49.30
2023-10-09T23:56:40.902Z,49.40
2023-10-09T23:59:12.861Z,49.50
